sensor_id;sensor_type;location;lat;lon;timestamp;P1;durP1;ratioP1;P2;durP2;ratioP2
40320;SDS011;26027;51.454;6.628;2022-08-30T00:00:27;1.73;;;1.63;;
40320;SDS011;26027;51.454;6.628;2022-08-30T00:03:12;1.75;;;1.50;;
40320;SDS011;26027;51.454;6.628;2022-08-30T00:05:39;1.80;;;1.70;;
40320;SDS011;26027;51.454;6.628;2022-08-30T00:08:05;1.60;;;1.50;;
40320;SDS011;26027;51.454;6.628;2022-08-30T00:10:31;1.70;;;1.60;;
40320;SDS011;26027;51.454;6.628;2022-08-30T00:12:58;1.70;;;1.60;;
40320;SDS011;26027;51.454;6.628;2022-08-30T00:15:25;1.73;;;1.63;;
40320;SDS011;26027;51.454;6.628;2022-08-30T00:17:51;1.90;;;1.80;;
40320;SDS011;26027;51.454;6.628;2022-08-30T00:20:20;1.70;;;1.60;;
40320;SDS011;26027;51.454;6.628;2022-08-30T00:22:46;1.60;;;1.50;;
40320;SDS011;26027;51.454;6.628;2022-08-30T00:25:14;1.70;;;1.60;;
40320;SDS011;26027;51.454;6.628;2022-08-30T00:27:40;1.90;;;1.80;;
40320;SDS011;26027;51.454;6.628;2022-08-30T00:30:07;1.80;;;1.70;;
40320;SDS011;26027;51.454;6.628;2022-08-30T00:32:34;1.80;;;1.70;;
40320;SDS011;26027;51.454;6.628;2022-08-30T00:35:00;1.95;;;1.80;;
40320;SDS011;26027;51.454;6.628;2022-08-30T00:37:26;1.90;;;1.80;;
40320;SDS011;26027;51.454;6.628;2022-08-30T00:39:52;1.70;;;1.60;;
40320;SDS011;26027;51.454;6.628;2022-08-30T00:42:18;1.40;;;1.30;;
40320;SDS011;26027;51.454;6.628;2022-08-30T00:44:45;1.73;;;1.63;;
40320;SDS011;26027;51.454;6.628;2022-08-30T00:47:11;1.90;;;1.80;;
40320;SDS011;26027;51.454;6.628;2022-08-30T00:49:38;1.63;;;1.52;;
40320;SDS011;26027;51.454;6.628;2022-08-30T00:52:04;1.77;;;1.65;;
40320;SDS011;26027;51.454;6.628;2022-08-30T00:54:31;1.70;;;1.60;;
40320;SDS011;26027;51.454;6.628;2022-08-30T00:56:58;1.75;;;1.65;;
40320;SDS011;26027;51.454;6.628;2022-08-30T00:59:24;1.50;;;1.40;;
40320;SDS011;26027;51.454;6.628;2022-08-30T01:01:53;1.50;;;1.35;;
40320;SDS011;26027;51.454;6.628;2022-08-30T01:04:19;1.77;;;1.38;;
40320;SDS011;26027;51.454;6.628;2022-08-30T01:06:46;1.50;;;1.40;;
40320;SDS011;26027;51.454;6.628;2022-08-30T01:09:12;1.60;;;1.50;;
40320;SDS011;26027;51.454;6.628;2022-08-30T01:11:39;1.63;;;1.52;;
40320;SDS011;26027;51.454;6.628;2022-08-30T01:14:06;1.67;;;1.55;;
40320;SDS011;26027;51.454;6.628;2022-08-30T01:16:33;1.70;;;1.60;;
40320;SDS011;26027;51.454;6.628;2022-08-30T01:18:59;1.30;;;1.20;;
40320;SDS011;26027;51.454;6.628;2022-08-30T01:24:03;1.75;;;1.65;;
40320;SDS011;26027;51.454;6.628;2022-08-30T01:26:30;1.65;;;1.55;;
40320;SDS011;26027;51.454;6.628;2022-08-30T01:28:59;1.52;;;1.42;;
40320;SDS011;26027;51.454;6.628;2022-08-30T01:31:27;1.60;;;1.50;;
40320;SDS011;26027;51.454;6.628;2022-08-30T01:33:53;1.63;;;1.52;;
40320;SDS011;26027;51.454;6.628;2022-08-30T01:36:19;1.40;;;1.30;;
40320;SDS011;26027;51.454;6.628;2022-08-30T01:38:46;1.60;;;1.50;;
40320;SDS011;26027;51.454;6.628;2022-08-30T01:41:14;1.70;;;1.60;;
40320;SDS011;26027;51.454;6.628;2022-08-30T01:43:42;1.73;;;1.63;;
40320;SDS011;26027;51.454;6.628;2022-08-30T01:46:08;1.63;;;1.52;;
40320;SDS011;26027;51.454;6.628;2022-08-30T01:48:35;1.70;;;1.60;;
40320;SDS011;26027;51.454;6.628;2022-08-30T01:51:01;1.83;;;1.73;;
40320;SDS011;26027;51.454;6.628;2022-08-30T01:53:27;1.65;;;1.55;;
40320;SDS011;26027;51.454;6.628;2022-08-30T01:55:53;1.70;;;1.60;;
40320;SDS011;26027;51.454;6.628;2022-08-30T01:58:20;1.88;;;1.77;;
40320;SDS011;26027;51.454;6.628;2022-08-30T02:00:46;1.60;;;1.50;;
40320;SDS011;26027;51.454;6.628;2022-08-30T02:03:12;1.60;;;1.50;;
40320;SDS011;26027;51.454;6.628;2022-08-30T02:05:38;1.48;;;1.38;;
40320;SDS011;26027;51.454;6.628;2022-08-30T02:08:04;1.70;;;1.60;;
40320;SDS011;26027;51.454;6.628;2022-08-30T02:10:30;1.88;;;1.77;;
40320;SDS011;26027;51.454;6.628;2022-08-30T02:12:56;1.52;;;1.42;;
40320;SDS011;26027;51.454;6.628;2022-08-30T02:15:23;1.70;;;1.60;;
40320;SDS011;26027;51.454;6.628;2022-08-30T02:17:50;1.50;;;1.40;;
40320;SDS011;26027;51.454;6.628;2022-08-30T02:20:16;1.52;;;1.42;;
40320;SDS011;26027;51.454;6.628;2022-08-30T02:22:42;1.60;;;1.50;;
40320;SDS011;26027;51.454;6.628;2022-08-30T02:25:08;1.70;;;1.60;;
40320;SDS011;26027;51.454;6.628;2022-08-30T02:27:34;1.63;;;1.52;;
40320;SDS011;26027;51.454;6.628;2022-08-30T02:30:00;1.50;;;1.40;;
40320;SDS011;26027;51.454;6.628;2022-08-30T02:32:26;1.75;;;1.65;;
40320;SDS011;26027;51.454;6.628;2022-08-30T02:34:52;1.52;;;1.42;;
40320;SDS011;26027;51.454;6.628;2022-08-30T02:37:19;1.60;;;1.50;;
40320;SDS011;26027;51.454;6.628;2022-08-30T02:39:45;1.40;;;1.30;;
40320;SDS011;26027;51.454;6.628;2022-08-30T02:42:11;1.63;;;1.50;;
40320;SDS011;26027;51.454;6.628;2022-08-30T02:44:37;1.58;;;1.48;;
40320;SDS011;26027;51.454;6.628;2022-08-30T02:47:03;1.63;;;1.52;;
40320;SDS011;26027;51.454;6.628;2022-08-30T02:49:29;1.52;;;1.42;;
40320;SDS011;26027;51.454;6.628;2022-08-30T02:51:56;1.60;;;1.50;;
40320;SDS011;26027;51.454;6.628;2022-08-30T02:54:22;1.42;;;1.33;;
40320;SDS011;26027;51.454;6.628;2022-08-30T02:56:48;1.60;;;1.50;;
40320;SDS011;26027;51.454;6.628;2022-08-30T02:59:15;1.50;;;1.40;;
40320;SDS011;26027;51.454;6.628;2022-08-30T03:01:42;1.55;;;1.45;;
40320;SDS011;26027;51.454;6.628;2022-08-30T03:04:08;1.60;;;1.50;;
40320;SDS011;26027;51.454;6.628;2022-08-30T03:06:34;1.60;;;1.50;;
40320;SDS011;26027;51.454;6.628;2022-08-30T03:09:00;1.30;;;1.20;;
40320;SDS011;26027;51.454;6.628;2022-08-30T03:11:26;1.58;;;1.48;;
40320;SDS011;26027;51.454;6.628;2022-08-30T03:13:53;1.42;;;1.33;;
40320;SDS011;26027;51.454;6.628;2022-08-30T03:16:19;1.50;;;1.40;;
40320;SDS011;26027;51.454;6.628;2022-08-30T03:18:46;1.63;;;1.52;;
40320;SDS011;26027;51.454;6.628;2022-08-30T03:21:13;1.60;;;1.50;;
40320;SDS011;26027;51.454;6.628;2022-08-30T03:23:40;1.50;;;1.40;;
40320;SDS011;26027;51.454;6.628;2022-08-30T03:26:07;1.30;;;1.30;;
40320;SDS011;26027;51.454;6.628;2022-08-30T03:28:34;1.58;;;1.48;;
40320;SDS011;26027;51.454;6.628;2022-08-30T03:31:00;1.60;;;1.50;;
40320;SDS011;26027;51.454;6.628;2022-08-30T03:33:26;1.50;;;1.40;;
40320;SDS011;26027;51.454;6.628;2022-08-30T03:35:52;1.45;;;1.35;;
40320;SDS011;26027;51.454;6.628;2022-08-30T03:38:18;1.42;;;1.33;;
40320;SDS011;26027;51.454;6.628;2022-08-30T03:40:44;1.30;;;1.20;;
40320;SDS011;26027;51.454;6.628;2022-08-30T03:43:10;1.42;;;1.33;;
40320;SDS011;26027;51.454;6.628;2022-08-30T03:45:36;1.50;;;1.40;;
40320;SDS011;26027;51.454;6.628;2022-08-30T03:48:03;1.50;;;1.40;;
40320;SDS011;26027;51.454;6.628;2022-08-30T03:50:29;1.25;;;1.25;;
40320;SDS011;26027;51.454;6.628;2022-08-30T03:52:56;1.48;;;1.38;;
40320;SDS011;26027;51.454;6.628;2022-08-30T03:55:25;1.60;;;1.50;;
40320;SDS011;26027;51.454;6.628;2022-08-30T03:57:52;1.52;;;1.42;;
40320;SDS011;26027;51.454;6.628;2022-08-30T04:00:18;1.30;;;1.23;;
40320;SDS011;26027;51.454;6.628;2022-08-30T04:02:44;1.25;;;1.20;;
40320;SDS011;26027;51.454;6.628;2022-08-30T04:05:10;1.50;;;1.40;;
40320;SDS011;26027;51.454;6.628;2022-08-30T04:07:36;1.33;;;1.30;;
40320;SDS011;26027;51.454;6.628;2022-08-30T04:10:06;1.40;;;1.40;;
40320;SDS011;26027;51.454;6.628;2022-08-30T04:12:32;1.50;;;1.40;;
40320;SDS011;26027;51.454;6.628;2022-08-30T04:14:58;1.23;;;1.23;;
40320;SDS011;26027;51.454;6.628;2022-08-30T04:17:24;1.35;;;1.25;;
40320;SDS011;26027;51.454;6.628;2022-08-30T04:19:50;1.63;;;1.52;;
40320;SDS011;26027;51.454;6.628;2022-08-30T04:22:17;1.70;;;1.60;;
40320;SDS011;26027;51.454;6.628;2022-08-30T04:24:43;3.40;;;2.10;;
40320;SDS011;26027;51.454;6.628;2022-08-30T04:27:09;4.75;;;2.50;;
40320;SDS011;26027;51.454;6.628;2022-08-30T04:29:35;2.58;;;2.10;;
40320;SDS011;26027;51.454;6.628;2022-08-30T04:32:01;3.47;;;2.33;;
40320;SDS011;26027;51.454;6.628;2022-08-30T04:34:27;2.42;;;2.22;;
40320;SDS011;26027;51.454;6.628;2022-08-30T04:36:53;3.28;;;2.33;;
40320;SDS011;26027;51.454;6.628;2022-08-30T04:39:19;2.70;;;2.50;;
40320;SDS011;26027;51.454;6.628;2022-08-30T04:41:45;2.72;;;2.10;;
40320;SDS011;26027;51.454;6.628;2022-08-30T04:44:12;3.10;;;2.40;;
40320;SDS011;26027;51.454;6.628;2022-08-30T04:46:39;3.25;;;2.63;;
40320;SDS011;26027;51.454;6.628;2022-08-30T04:49:05;2.55;;;2.30;;
40320;SDS011;26027;51.454;6.628;2022-08-30T04:51:31;3.00;;;2.40;;
40320;SDS011;26027;51.454;6.628;2022-08-30T04:53:57;3.38;;;2.60;;
40320;SDS011;26027;51.454;6.628;2022-08-30T04:56:23;3.28;;;2.45;;
40320;SDS011;26027;51.454;6.628;2022-08-30T04:58:51;3.97;;;2.63;;
40320;SDS011;26027;51.454;6.628;2022-08-30T05:01:19;2.83;;;2.45;;
40320;SDS011;26027;51.454;6.628;2022-08-30T05:03:46;4.20;;;2.70;;
40320;SDS011;26027;51.454;6.628;2022-08-30T05:06:13;4.45;;;2.80;;
40320;SDS011;26027;51.454;6.628;2022-08-30T05:08:39;2.97;;;2.70;;
40320;SDS011;26027;51.454;6.628;2022-08-30T05:11:06;2.65;;;2.40;;
40320;SDS011;26027;51.454;6.628;2022-08-30T05:13:32;4.50;;;2.67;;
40320;SDS011;26027;51.454;6.628;2022-08-30T05:15:59;4.63;;;2.53;;
40320;SDS011;26027;51.454;6.628;2022-08-30T05:18:25;6.90;;;2.97;;
40320;SDS011;26027;51.454;6.628;2022-08-30T05:21:07;5.10;;;3.10;;
40320;SDS011;26027;51.454;6.628;2022-08-30T05:23:34;6.07;;;3.00;;
40320;SDS011;26027;51.454;6.628;2022-08-30T05:26:08;4.95;;;2.83;;
40320;SDS011;26027;51.454;6.628;2022-08-30T05:28:34;3.47;;;2.83;;
40320;SDS011;26027;51.454;6.628;2022-08-30T05:31:01;5.63;;;2.70;;
40320;SDS011;26027;51.454;6.628;2022-08-30T05:33:27;3.85;;;2.70;;
40320;SDS011;26027;51.454;6.628;2022-08-30T05:35:53;6.07;;;3.25;;
40320;SDS011;26027;51.454;6.628;2022-08-30T05:38:20;4.95;;;2.80;;
40320;SDS011;26027;51.454;6.628;2022-08-30T05:40:46;3.90;;;2.58;;
40320;SDS011;26027;51.454;6.628;2022-08-30T05:43:12;5.38;;;2.78;;
40320;SDS011;26027;51.454;6.628;2022-08-30T05:45:38;2.90;;;2.20;;
40320;SDS011;26027;51.454;6.628;2022-08-30T05:48:04;3.92;;;2.38;;
40320;SDS011;26027;51.454;6.628;2022-08-30T05:50:30;2.72;;;2.53;;
40320;SDS011;26027;51.454;6.628;2022-08-30T05:52:56;6.03;;;2.92;;
40320;SDS011;26027;51.454;6.628;2022-08-30T05:55:22;5.55;;;3.17;;
40320;SDS011;26027;51.454;6.628;2022-08-30T05:57:48;2.65;;;2.17;;
40320;SDS011;26027;51.454;6.628;2022-08-30T06:00:15;5.18;;;2.33;;
40320;SDS011;26027;51.454;6.628;2022-08-30T06:02:42;3.85;;;2.55;;
40320;SDS011;26027;51.454;6.628;2022-08-30T06:05:09;6.00;;;2.97;;
40320;SDS011;26027;51.454;6.628;2022-08-30T06:07:35;3.22;;;2.22;;
40320;SDS011;26027;51.454;6.628;2022-08-30T06:10:02;3.05;;;2.75;;
40320;SDS011;26027;51.454;6.628;2022-08-30T06:12:30;3.72;;;2.20;;
40320;SDS011;26027;51.454;6.628;2022-08-30T06:14:56;4.38;;;2.80;;
40320;SDS011;26027;51.454;6.628;2022-08-30T06:17:22;5.40;;;2.80;;
40320;SDS011;26027;51.454;6.628;2022-08-30T06:19:48;3.55;;;2.80;;
40320;SDS011;26027;51.454;6.628;2022-08-30T06:22:14;3.75;;;2.50;;
40320;SDS011;26027;51.454;6.628;2022-08-30T06:24:41;3.90;;;2.80;;
40320;SDS011;26027;51.454;6.628;2022-08-30T06:27:08;6.45;;;2.85;;
40320;SDS011;26027;51.454;6.628;2022-08-30T06:29:34;5.80;;;2.70;;
40320;SDS011;26027;51.454;6.628;2022-08-30T06:32:00;3.80;;;2.42;;
40320;SDS011;26027;51.454;6.628;2022-08-30T06:34:27;6.15;;;2.50;;
40320;SDS011;26027;51.454;6.628;2022-08-30T06:36:53;2.42;;;2.20;;
40320;SDS011;26027;51.454;6.628;2022-08-30T06:39:19;4.63;;;2.80;;
40320;SDS011;26027;51.454;6.628;2022-08-30T06:41:45;3.78;;;2.95;;
40320;SDS011;26027;51.454;6.628;2022-08-30T06:44:11;2.70;;;2.40;;
40320;SDS011;26027;51.454;6.628;2022-08-30T06:46:37;2.60;;;2.40;;
40320;SDS011;26027;51.454;6.628;2022-08-30T06:49:04;4.22;;;2.40;;
40320;SDS011;26027;51.454;6.628;2022-08-30T06:51:32;4.47;;;2.67;;
40320;SDS011;26027;51.454;6.628;2022-08-30T06:53:59;4.80;;;2.95;;
40320;SDS011;26027;51.454;6.628;2022-08-30T06:56:25;2.85;;;2.50;;
40320;SDS011;26027;51.454;6.628;2022-08-30T06:58:51;6.82;;;2.65;;
40320;SDS011;26027;51.454;6.628;2022-08-30T07:01:18;4.75;;;3.15;;
40320;SDS011;26027;51.454;6.628;2022-08-30T07:03:45;5.70;;;3.25;;
40320;SDS011;26027;51.454;6.628;2022-08-30T07:06:11;7.22;;;3.50;;
40320;SDS011;26027;51.454;6.628;2022-08-30T07:08:37;5.15;;;2.95;;
40320;SDS011;26027;51.454;6.628;2022-08-30T07:11:04;3.97;;;3.17;;
40320;SDS011;26027;51.454;6.628;2022-08-30T07:13:31;5.20;;;3.25;;
40320;SDS011;26027;51.454;6.628;2022-08-30T07:15:57;5.38;;;2.63;;
40320;SDS011;26027;51.454;6.628;2022-08-30T07:18:24;5.03;;;2.88;;
40320;SDS011;26027;51.454;6.628;2022-08-30T07:21:13;4.47;;;2.70;;
40320;SDS011;26027;51.454;6.628;2022-08-30T07:23:39;4.78;;;2.83;;
40320;SDS011;26027;51.454;6.628;2022-08-30T07:26:07;6.82;;;2.60;;
40320;SDS011;26027;51.454;6.628;2022-08-30T07:28:33;3.38;;;2.50;;
40320;SDS011;26027;51.454;6.628;2022-08-30T07:30:59;4.53;;;2.30;;
40320;SDS011;26027;51.454;6.628;2022-08-30T07:33:26;5.07;;;2.45;;
40320;SDS011;26027;51.454;6.628;2022-08-30T07:35:52;6.30;;;2.88;;
40320;SDS011;26027;51.454;6.628;2022-08-30T07:38:18;3.53;;;2.72;;
40320;SDS011;26027;51.454;6.628;2022-08-30T07:40:44;4.95;;;2.78;;
40320;SDS011;26027;51.454;6.628;2022-08-30T07:43:10;6.43;;;2.38;;
40320;SDS011;26027;51.454;6.628;2022-08-30T07:45:36;2.67;;;2.20;;
40320;SDS011;26027;51.454;6.628;2022-08-30T07:48:03;3.03;;;2.25;;
40320;SDS011;26027;51.454;6.628;2022-08-30T07:50:29;2.47;;;2.00;;
40320;SDS011;26027;51.454;6.628;2022-08-30T07:52:55;4.53;;;2.22;;
40320;SDS011;26027;51.454;6.628;2022-08-30T07:55:21;5.70;;;2.40;;
40320;SDS011;26027;51.454;6.628;2022-08-30T07:57:47;2.42;;;2.17;;
40320;SDS011;26027;51.454;6.628;2022-08-30T08:00:14;4.72;;;2.55;;
40320;SDS011;26027;51.454;6.628;2022-08-30T08:02:40;4.78;;;2.25;;
40320;SDS011;26027;51.454;6.628;2022-08-30T08:05:06;4.70;;;2.13;;
40320;SDS011;26027;51.454;6.628;2022-08-30T08:07:33;3.33;;;2.20;;
40320;SDS011;26027;51.454;6.628;2022-08-30T08:09:59;4.07;;;2.28;;
40320;SDS011;26027;51.454;6.628;2022-08-30T08:12:26;3.60;;;2.30;;
40320;SDS011;26027;51.454;6.628;2022-08-30T08:14:52;3.20;;;2.40;;
40320;SDS011;26027;51.454;6.628;2022-08-30T08:17:18;5.53;;;2.10;;
40320;SDS011;26027;51.454;6.628;2022-08-30T08:19:44;4.28;;;2.40;;
40320;SDS011;26027;51.454;6.628;2022-08-30T08:22:10;4.28;;;2.35;;
40320;SDS011;26027;51.454;6.628;2022-08-30T08:24:36;4.72;;;2.33;;
40320;SDS011;26027;51.454;6.628;2022-08-30T08:27:03;4.07;;;2.40;;
40320;SDS011;26027;51.454;6.628;2022-08-30T08:29:29;5.50;;;2.03;;
40320;SDS011;26027;51.454;6.628;2022-08-30T08:31:55;5.07;;;2.30;;
40320;SDS011;26027;51.454;6.628;2022-08-30T08:34:22;3.03;;;1.98;;
40320;SDS011;26027;51.454;6.628;2022-08-30T08:36:51;3.63;;;2.30;;
40320;SDS011;26027;51.454;6.628;2022-08-30T08:39:17;3.17;;;2.40;;
40320;SDS011;26027;51.454;6.628;2022-08-30T08:41:52;3.50;;;2.25;;
40320;SDS011;26027;51.454;6.628;2022-08-30T08:44:27;2.80;;;2.05;;
40320;SDS011;26027;51.454;6.628;2022-08-30T08:47:02;4.70;;;2.00;;
40320;SDS011;26027;51.454;6.628;2022-08-30T08:49:32;3.03;;;2.08;;
40320;SDS011;26027;51.454;6.628;2022-08-30T08:52:00;4.57;;;2.33;;
40320;SDS011;26027;51.454;6.628;2022-08-30T08:54:52;2.47;;;1.90;;
40320;SDS011;26027;51.454;6.628;2022-08-30T08:57:22;3.22;;;2.10;;
40320;SDS011;26027;51.454;6.628;2022-08-30T08:59:49;5.10;;;2.08;;
40320;SDS011;26027;51.454;6.628;2022-08-30T09:04:48;3.17;;;1.85;;
40320;SDS011;26027;51.454;6.628;2022-08-30T09:07:21;3.95;;;2.15;;
40320;SDS011;26027;51.454;6.628;2022-08-30T09:09:48;2.95;;;1.83;;
40320;SDS011;26027;51.454;6.628;2022-08-30T09:12:14;2.28;;;1.85;;
40320;SDS011;26027;51.454;6.628;2022-08-30T09:14:45;2.67;;;1.77;;
40320;SDS011;26027;51.454;6.628;2022-08-30T09:17:15;4.50;;;1.92;;
40320;SDS011;26027;51.454;6.628;2022-08-30T09:19:43;3.42;;;2.10;;
40320;SDS011;26027;51.454;6.628;2022-08-30T09:24:43;3.67;;;1.75;;
40320;SDS011;26027;51.454;6.628;2022-08-30T09:27:43;3.53;;;1.90;;
40320;SDS011;26027;51.454;6.628;2022-08-30T09:30:24;2.60;;;1.60;;
40320;SDS011;26027;51.454;6.628;2022-08-30T09:32:50;4.28;;;1.80;;
40320;SDS011;26027;51.454;6.628;2022-08-30T09:35:20;3.10;;;1.77;;
40320;SDS011;26027;51.454;6.628;2022-08-30T09:37:57;4.15;;;1.83;;
40320;SDS011;26027;51.454;6.628;2022-08-30T09:40:36;2.75;;;1.95;;
40320;SDS011;26027;51.454;6.628;2022-08-30T09:45:41;3.38;;;1.52;;
40320;SDS011;26027;51.454;6.628;2022-08-30T09:50:46;2.00;;;1.77;;
40320;SDS011;26027;51.454;6.628;2022-08-30T09:53:17;2.72;;;1.92;;
40320;SDS011;26027;51.454;6.628;2022-08-30T09:56:06;4.90;;;1.90;;
40320;SDS011;26027;51.454;6.628;2022-08-30T09:58:45;4.05;;;1.90;;
40320;SDS011;26027;51.454;6.628;2022-08-30T10:01:23;3.53;;;1.83;;
40320;SDS011;26027;51.454;6.628;2022-08-30T10:11:56;4.60;;;1.75;;
40320;SDS011;26027;51.454;6.628;2022-08-30T10:20:18;2.22;;;1.50;;
40320;SDS011;26027;51.454;6.628;2022-08-30T10:22:48;1.30;;;1.30;;
40320;SDS011;26027;51.454;6.628;2022-08-30T10:25:16;3.75;;;1.80;;
40320;SDS011;26027;51.454;6.628;2022-08-30T10:27:54;2.90;;;1.73;;
40320;SDS011;26027;51.454;6.628;2022-08-30T10:30:22;2.83;;;1.65;;
40320;SDS011;26027;51.454;6.628;2022-08-30T10:35:21;1.63;;;1.52;;
40320;SDS011;26027;51.454;6.628;2022-08-30T10:37:57;2.22;;;1.65;;
40320;SDS011;26027;51.454;6.628;2022-08-30T10:40:47;2.65;;;1.60;;
40320;SDS011;26027;51.454;6.628;2022-08-30T10:43:35;1.67;;;1.58;;
40320;SDS011;26027;51.454;6.628;2022-08-30T10:46:04;2.15;;;1.70;;
40320;SDS011;26027;51.454;6.628;2022-08-30T10:48:36;2.67;;;1.70;;
40320;SDS011;26027;51.454;6.628;2022-08-30T10:51:14;3.33;;;1.40;;
40320;SDS011;26027;51.454;6.628;2022-08-30T10:53:52;2.22;;;1.67;;
40320;SDS011;26027;51.454;6.628;2022-08-30T10:56:21;1.95;;;1.50;;
40320;SDS011;26027;51.454;6.628;2022-08-30T10:58:48;1.90;;;1.65;;
40320;SDS011;26027;51.454;6.628;2022-08-30T11:04:02;1.75;;;1.65;;
40320;SDS011;26027;51.454;6.628;2022-08-30T11:11:55;1.52;;;1.42;;
40320;SDS011;26027;51.454;6.628;2022-08-30T11:14:25;2.22;;;1.60;;
40320;SDS011;26027;51.454;6.628;2022-08-30T11:16:52;6.55;;;1.90;;
40320;SDS011;26027;51.454;6.628;2022-08-30T11:19:23;3.72;;;1.65;;
40320;SDS011;26027;51.454;6.628;2022-08-30T11:21:50;3.17;;;1.40;;
40320;SDS011;26027;51.454;6.628;2022-08-30T11:24:17;2.63;;;1.55;;
40320;SDS011;26027;51.454;6.628;2022-08-30T11:37:10;3.17;;;1.50;;
40320;SDS011;26027;51.454;6.628;2022-08-30T11:42:40;2.05;;;1.40;;
40320;SDS011;26027;51.454;6.628;2022-08-30T11:47:49;2.45;;;1.77;;
40320;SDS011;26027;51.454;6.628;2022-08-30T11:50:16;1.63;;;1.52;;
40320;SDS011;26027;51.454;6.628;2022-08-30T12:00:44;2.03;;;1.40;;
40320;SDS011;26027;51.454;6.628;2022-08-30T12:10:55;2.08;;;1.45;;
40320;SDS011;26027;51.454;6.628;2022-08-30T12:18:44;1.48;;;1.38;;
40320;SDS011;26027;51.454;6.628;2022-08-30T12:26:14;3.22;;;1.50;;
40320;SDS011;26027;51.454;6.628;2022-08-30T12:28:40;2.20;;;1.50;;
40320;SDS011;26027;51.454;6.628;2022-08-30T12:31:15;2.15;;;1.50;;
40320;SDS011;26027;51.454;6.628;2022-08-30T12:33:44;1.80;;;1.52;;
40320;SDS011;26027;51.454;6.628;2022-08-30T12:36:12;1.95;;;1.70;;
40320;SDS011;26027;51.454;6.628;2022-08-30T12:38:38;2.40;;;1.52;;
40320;SDS011;26027;51.454;6.628;2022-08-30T12:41:04;1.77;;;1.60;;
40320;SDS011;26027;51.454;6.628;2022-08-30T12:43:32;2.88;;;1.65;;
40320;SDS011;26027;51.454;6.628;2022-08-30T12:45:59;2.00;;;1.55;;
40320;SDS011;26027;51.454;6.628;2022-08-30T12:48:28;1.45;;;1.30;;
40320;SDS011;26027;51.454;6.628;2022-08-30T12:50:57;1.50;;;1.40;;
40320;SDS011;26027;51.454;6.628;2022-08-30T12:58:35;1.70;;;1.60;;
40320;SDS011;26027;51.454;6.628;2022-08-30T13:01:12;2.70;;;1.55;;
40320;SDS011;26027;51.454;6.628;2022-08-30T13:03:38;1.65;;;1.55;;
40320;SDS011;26027;51.454;6.628;2022-08-30T13:06:05;2.22;;;1.75;;
40320;SDS011;26027;51.454;6.628;2022-08-30T13:08:34;4.15;;;1.83;;
40320;SDS011;26027;51.454;6.628;2022-08-30T13:18:37;1.60;;;1.50;;
40320;SDS011;26027;51.454;6.628;2022-08-30T13:21:24;1.60;;;1.50;;
40320;SDS011;26027;51.454;6.628;2022-08-30T13:23:51;2.40;;;1.50;;
40320;SDS011;26027;51.454;6.628;2022-08-30T13:26:19;1.83;;;1.73;;
40320;SDS011;26027;51.454;6.628;2022-08-30T13:28:47;1.95;;;1.58;;
40320;SDS011;26027;51.454;6.628;2022-08-30T13:31:13;1.60;;;1.50;;
40320;SDS011;26027;51.454;6.628;2022-08-30T13:33:39;2.63;;;1.50;;
40320;SDS011;26027;51.454;6.628;2022-08-30T13:36:05;2.28;;;1.75;;
40320;SDS011;26027;51.454;6.628;2022-08-30T13:38:31;1.98;;;1.58;;
40320;SDS011;26027;51.454;6.628;2022-08-30T13:40:57;1.75;;;1.58;;
40320;SDS011;26027;51.454;6.628;2022-08-30T13:43:23;1.67;;;1.58;;
40320;SDS011;26027;51.454;6.628;2022-08-30T13:45:49;2.15;;;1.58;;
40320;SDS011;26027;51.454;6.628;2022-08-30T13:48:16;2.50;;;1.80;;
40320;SDS011;26027;51.454;6.628;2022-08-30T13:50:42;2.53;;;1.30;;
40320;SDS011;26027;51.454;6.628;2022-08-30T13:53:08;2.92;;;1.67;;
40320;SDS011;26027;51.454;6.628;2022-08-30T13:55:35;3.88;;;1.50;;
40320;SDS011;26027;51.454;6.628;2022-08-30T13:58:01;1.60;;;1.50;;
40320;SDS011;26027;51.454;6.628;2022-08-30T14:00:27;2.45;;;1.70;;
40320;SDS011;26027;51.454;6.628;2022-08-30T14:02:53;1.90;;;1.70;;
40320;SDS011;26027;51.454;6.628;2022-08-30T14:05:23;2.55;;;1.40;;
40320;SDS011;26027;51.454;6.628;2022-08-30T14:07:50;1.48;;;1.35;;
40320;SDS011;26027;51.454;6.628;2022-08-30T14:10:17;3.03;;;1.70;;
40320;SDS011;26027;51.454;6.628;2022-08-30T14:12:44;5.63;;;1.80;;
40320;SDS011;26027;51.454;6.628;2022-08-30T14:15:10;3.20;;;1.65;;
40320;SDS011;26027;51.454;6.628;2022-08-30T14:17:36;2.08;;;1.60;;
40320;SDS011;26027;51.454;6.628;2022-08-30T14:20:02;2.55;;;1.48;;
40320;SDS011;26027;51.454;6.628;2022-08-30T14:22:28;4.78;;;1.60;;
40320;SDS011;26027;51.454;6.628;2022-08-30T14:24:54;1.52;;;1.42;;
40320;SDS011;26027;51.454;6.628;2022-08-30T14:27:20;1.50;;;1.40;;
40320;SDS011;26027;51.454;6.628;2022-08-30T14:29:46;3.75;;;1.80;;
40320;SDS011;26027;51.454;6.628;2022-08-30T14:32:13;2.58;;;1.67;;
40320;SDS011;26027;51.454;6.628;2022-08-30T14:34:39;1.50;;;1.40;;
40320;SDS011;26027;51.454;6.628;2022-08-30T14:37:05;3.47;;;1.58;;
40320;SDS011;26027;51.454;6.628;2022-08-30T14:39:31;1.95;;;1.42;;
40320;SDS011;26027;51.454;6.628;2022-08-30T14:41:57;2.67;;;1.65;;
40320;SDS011;26027;51.454;6.628;2022-08-30T14:44:23;1.75;;;1.42;;
40320;SDS011;26027;51.454;6.628;2022-08-30T14:46:50;1.65;;;1.30;;
40320;SDS011;26027;51.454;6.628;2022-08-30T14:49:16;1.60;;;1.50;;
40320;SDS011;26027;51.454;6.628;2022-08-30T14:51:43;2.90;;;1.67;;
40320;SDS011;26027;51.454;6.628;2022-08-30T14:54:13;1.60;;;1.50;;
40320;SDS011;26027;51.454;6.628;2022-08-30T14:56:39;1.92;;;1.50;;
40320;SDS011;26027;51.454;6.628;2022-08-30T14:59:05;3.40;;;1.98;;
40320;SDS011;26027;51.454;6.628;2022-08-30T15:01:31;5.30;;;1.80;;
40320;SDS011;26027;51.454;6.628;2022-08-30T15:03:58;4.30;;;1.77;;
40320;SDS011;26027;51.454;6.628;2022-08-30T15:06:24;5.30;;;1.60;;
40320;SDS011;26027;51.454;6.628;2022-08-30T15:08:51;2.60;;;1.65;;
40320;SDS011;26027;51.454;6.628;2022-08-30T15:11:18;4.63;;;1.52;;
40320;SDS011;26027;51.454;6.628;2022-08-30T15:13:44;5.25;;;1.83;;
40320;SDS011;26027;51.454;6.628;2022-08-30T15:16:11;5.28;;;1.60;;
40320;SDS011;26027;51.454;6.628;2022-08-30T15:18:38;7.40;;;1.80;;
40320;SDS011;26027;51.454;6.628;2022-08-30T15:21:04;6.95;;;1.88;;
40320;SDS011;26027;51.454;6.628;2022-08-30T15:23:31;3.92;;;1.45;;
40320;SDS011;26027;51.454;6.628;2022-08-30T15:25:57;4.47;;;1.65;;
40320;SDS011;26027;51.454;6.628;2022-08-30T15:28:23;1.70;;;1.60;;
40320;SDS011;26027;51.454;6.628;2022-08-30T15:30:49;1.60;;;1.40;;
40320;SDS011;26027;51.454;6.628;2022-08-30T15:33:15;4.03;;;1.48;;
40320;SDS011;26027;51.454;6.628;2022-08-30T15:35:41;3.95;;;1.63;;
40320;SDS011;26027;51.454;6.628;2022-08-30T15:38:07;1.95;;;1.50;;
40320;SDS011;26027;51.454;6.628;2022-08-30T15:40:34;4.13;;;1.58;;
40320;SDS011;26027;51.454;6.628;2022-08-30T15:43:03;1.75;;;1.60;;
40320;SDS011;26027;51.454;6.628;2022-08-30T15:45:30;2.63;;;1.55;;
40320;SDS011;26027;51.454;6.628;2022-08-30T15:47:59;1.85;;;1.50;;
40320;SDS011;26027;51.454;6.628;2022-08-30T15:50:25;3.28;;;1.60;;
40320;SDS011;26027;51.454;6.628;2022-08-30T15:52:51;3.00;;;1.85;;
40320;SDS011;26027;51.454;6.628;2022-08-30T15:55:17;3.72;;;1.50;;
40320;SDS011;26027;51.454;6.628;2022-08-30T15:57:43;2.05;;;1.40;;
40320;SDS011;26027;51.454;6.628;2022-08-30T16:00:10;2.08;;;1.50;;
40320;SDS011;26027;51.454;6.628;2022-08-30T16:02:36;1.45;;;1.35;;
40320;SDS011;26027;51.454;6.628;2022-08-30T16:05:02;1.95;;;1.63;;
40320;SDS011;26027;51.454;6.628;2022-08-30T16:07:29;2.15;;;1.30;;
40320;SDS011;26027;51.454;6.628;2022-08-30T16:09:55;1.02;;;1.02;;
40320;SDS011;26027;51.454;6.628;2022-08-30T16:12:21;1.48;;;1.33;;
40320;SDS011;26027;51.454;6.628;2022-08-30T16:14:47;1.92;;;1.25;;
40320;SDS011;26027;51.454;6.628;2022-08-30T16:17:13;1.70;;;1.33;;
40320;SDS011;26027;51.454;6.628;2022-08-30T16:19:39;1.45;;;1.20;;
40320;SDS011;26027;51.454;6.628;2022-08-30T16:22:05;1.70;;;1.30;;